Time;durP1;ratioP1;P1;durP2;ratioP2;P2;SDS_P1;SDS_P2;PMS_P1;PMS_P2;Temp;Humidity;BMP_temperature;BMP_pressure;BME280_temperature;BME280_humidity;BME280_pressure;Samples;Min_cycle;Max_cycle;Signal;HPM_P1;HPM_P2
2021/07/28 00:00:52;;;;;;;11.55;10.45;;;17.30;99.90;;;;;;5051307;28;20056;-66
2021/07/28 00:03:18;;;;;;;11.82;9.75;;;17.30;99.90;;;;;;5051262;28;20114;-66
2021/07/28 00:05:43;;;;;;;12.25;11.10;;;17.20;99.90;;;;;;5065665;28;20060;-66
2021/07/28 00:08:09;;;;;;;12.13;10.82;;;17.30;99.90;;;;;;5057463;28;20046;-66
2021/07/28 00:10:38;;;;;;;13.07;11.63;;;17.20;99.90;;;;;;5070884;28;20436;-66
2021/07/28 00:13:04;;;;;;;12.18;10.98;;;17.20;99.90;;;;;;5052502;28;20037;-66
2021/07/28 00:15:29;;;;;;;12.63;10.82;;;17.20;99.90;;;;;;5065009;28;20091;-66
2021/07/28 00:17:59;;;;;;;11.93;10.82;;;17.20;99.90;;;;;;5067223;28;20072;-66
2021/07/28 00:25:38;;;;;;;14.38;12.32;;;17.00;99.90;;;;;;5064738;28;20244;-66
2021/07/28 00:28:04;;;;;;;15.43;11.90;;;17.00;99.90;;;;;;5069404;28;20106;-66
2021/07/28 00:30:31;;;;;;;13.00;11.60;;;17.00;99.90;;;;;;5070845;28;20032;-66
2021/07/28 00:32:57;;;;;;;15.07;12.50;;;16.90;99.90;;;;;;5063912;28;20394;-66
2021/07/28 00:35:22;;;;;;;13.82;12.35;;;16.90;99.90;;;;;;5063687;28;20040;-66
2021/07/28 00:37:49;;;;;;;13.60;12.18;;;16.90;99.90;;;;;;5061382;28;20098;-66
2021/07/28 00:40:15;;;;;;;14.55;13.05;;;16.80;99.90;;;;;;5067521;28;20037;-66
2021/07/28 00:42:41;;;;;;;14.95;12.32;;;16.80;99.90;;;;;;5054035;28;20693;-66
2021/07/28 00:45:07;;;;;;;18.58;13.57;;;16.70;99.90;;;;;;5059850;28;20033;-66
2021/07/28 00:47:33;;;;;;;16.17;13.20;;;16.70;99.90;;;;;;5052629;28;20041;-66
2021/07/28 00:50:00;;;;;;;15.60;12.02;;;16.60;99.90;;;;;;5070801;28;20041;-66
2021/07/28 00:52:26;;;;;;;17.77;13.38;;;16.60;99.90;;;;;;5070400;28;20062;-66
2021/07/28 00:54:52;;;;;;;16.38;14.70;;;16.50;99.90;;;;;;5062528;28;20037;-66
2021/07/28 00:57:18;;;;;;;14.77;12.48;;;16.50;99.90;;;;;;5067242;28;20445;-66
2021/07/28 00:59:44;;;;;;;14.98;12.70;;;16.50;99.90;;;;;;5035513;28;20042;-66
2021/07/28 01:02:10;;;;;;;14.15;12.68;;;16.40;99.90;;;;;;5050835;28;20430;-66
2021/07/28 01:04:36;;;;;;;19.83;13.77;;;16.40;99.90;;;;;;5063214;28;20033;-66
2021/07/28 01:07:01;;;;;;;15.88;13.98;;;16.40;99.90;;;;;;5054332;28;20087;-66
2021/07/28 01:09:28;;;;;;;15.60;14.00;;;16.40;99.90;;;;;;5055554;28;20048;-66
2021/07/28 01:11:57;;;;;;;16.55;14.32;;;16.30;99.90;;;;;;5065142;28;20040;-66
2021/07/28 01:14:22;;;;;;;16.25;14.52;;;16.30;99.90;;;;;;5058215;28;20065;-66
2021/07/28 01:16:48;;;;;;;16.83;14.38;;;16.30;99.90;;;;;;5053742;28;20080;-66
2021/07/28 01:19:17;;;;;;;18.90;14.15;;;16.30;99.90;;;;;;5072914;28;20041;-66
2021/07/28 01:21:44;;;;;;;19.30;13.95;;;16.20;99.90;;;;;;5059173;28;20041;-66
2021/07/28 01:24:13;;;;;;;15.63;13.98;;;16.20;99.90;;;;;;5063688;28;20047;-66
2021/07/28 01:26:39;;;;;;;16.70;14.55;;;16.20;99.90;;;;;;5053974;28;20047;-66
2021/07/28 01:29:06;;;;;;;17.98;14.50;;;16.20;99.90;;;;;;5053408;28;20049;-66
2021/07/28 01:31:39;;;;;;;15.98;14.20;;;16.10;99.90;;;;;;5052658;28;20048;-66
2021/07/28 01:34:06;;;;;;;17.52;14.45;;;16.10;99.90;;;;;;5036599;28;20482;-66
2021/07/28 01:36:33;;;;;;;18.83;15.15;;;16.00;99.90;;;;;;5034018;28;20037;-66
2021/07/28 01:38:59;;;;;;;18.17;14.40;;;16.00;99.90;;;;;;5062014;28;20068;-66
2021/07/28 01:41:25;;;;;;;16.60;14.90;;;16.00;99.90;;;;;;5073706;28;20445;-66
2021/07/28 01:43:50;;;;;;;18.27;15.50;;;16.00;99.90;;;;;;5061214;28;20051;-66
2021/07/28 01:46:18;;;;;;;18.50;15.15;;;16.00;99.90;;;;;;5053335;28;20039;-66
2021/07/28 01:48:44;;;;;;;19.02;15.45;;;16.10;99.90;;;;;;5055638;28;20040;-66
2021/07/28 01:51:09;;;;;;;18.63;15.20;;;16.10;99.90;;;;;;5053484;28;20446;-66
2021/07/28 01:53:35;;;;;;;17.48;15.57;;;16.10;99.90;;;;;;5057029;28;20033;-66
2021/07/28 01:56:01;;;;;;;17.17;15.13;;;16.10;99.90;;;;;;5052081;28;20037;-66
2021/07/28 01:58:26;;;;;;;16.42;14.75;;;16.10;99.90;;;;;;5063570;28;20040;-66
2021/07/28 02:03:20;;;;;;;17.98;15.30;;;16.10;99.90;;;;;;5069738;28;20071;-63
2021/07/28 02:05:46;;;;;;;17.95;15.23;;;16.20;99.90;;;;;;5071804;28;20028;-64
2021/07/28 02:08:14;;;;;;;17.40;15.65;;;16.20;99.90;;;;;;5073291;28;20043;-64
2021/07/28 02:10:48;;;;;;;16.60;14.68;;;16.20;99.90;;;;;;5070197;28;20041;-64
2021/07/28 02:13:20;;;;;;;17.80;15.68;;;16.20;99.90;;;;;;5073177;28;20044;-64
2021/07/28 02:15:47;;;;;;;19.95;16.27;;;16.10;99.90;;;;;;5068491;28;20035;-64
2021/07/28 02:18:13;;;;;;;18.85;15.20;;;16.10;99.90;;;;;;5053450;28;20043;-63
2021/07/28 02:20:39;;;;;;;16.83;15.02;;;16.00;99.90;;;;;;5067837;28;20119;-64
2021/07/28 02:23:05;;;;;;;19.02;15.93;;;16.00;99.90;;;;;;5052964;28;20041;-64
2021/07/28 02:25:31;;;;;;;17.38;14.70;;;16.00;99.90;;;;;;5057280;28;20039;-63
2021/07/28 02:27:57;;;;;;;18.20;15.98;;;15.90;99.90;;;;;;5067156;28;20094;-64
2021/07/28 02:30:23;;;;;;;19.35;15.75;;;16.00;99.90;;;;;;5069465;28;20041;-64
2021/07/28 02:32:49;;;;;;;17.38;15.50;;;15.90;99.90;;;;;;5052641;28;20068;-64
2021/07/28 02:35:15;;;;;;;16.90;15.02;;;15.90;99.90;;;;;;5054483;28;20110;-63
2021/07/28 02:37:44;;;;;;;20.98;15.85;;;15.90;99.90;;;;;;5073538;28;20058;-63
2021/07/28 02:40:13;;;;;;;21.33;16.25;;;15.90;99.90;;;;;;5082847;28;20041;-64
2021/07/28 02:42:39;;;;;;;20.33;16.70;;;15.90;99.90;;;;;;5067599;28;20093;-64
2021/07/28 02:45:06;;;;;;;24.85;16.90;;;15.80;99.90;;;;;;5072129;28;20041;-63
2021/07/28 02:47:31;;;;;;;21.23;16.98;;;15.80;99.90;;;;;;5073230;28;20036;-63
2021/07/28 02:49:57;;;;;;;18.23;16.25;;;15.80;99.90;;;;;;5083707;28;20120;-63
2021/07/28 02:52:23;;;;;;;22.52;16.40;;;15.70;99.90;;;;;;5055182;28;20387;-63
2021/07/28 02:54:49;;;;;;;19.33;17.08;;;15.70;99.90;;;;;;5070887;28;20044;-64
2021/07/28 02:57:14;;;;;;;25.08;18.80;;;15.70;99.90;;;;;;5054078;28;20470;-64
2021/07/28 02:59:40;;;;;;;22.80;17.77;;;15.60;99.90;;;;;;5072323;28;20048;-64
2021/07/28 03:02:05;;;;;;;23.38;17.75;;;15.60;99.90;;;;;;5071301;28;20094;-64
2021/07/28 03:04:31;;;;;;;19.63;17.00;;;15.60;99.90;;;;;;5072327;28;20044;-66
2021/07/28 03:06:57;;;;;;;22.25;17.25;;;15.60;99.90;;;;;;5056135;28;20041;-64
2021/07/28 03:09:23;;;;;;;20.88;17.88;;;15.60;99.90;;;;;;5054239;28;20090;-64
2021/07/28 03:11:48;;;;;;;25.45;17.20;;;15.50;99.90;;;;;;5069326;28;20036;-64
2021/07/28 03:14:15;;;;;;;24.15;18.67;;;15.60;99.90;;;;;;5071799;28;20060;-64
2021/07/28 03:16:40;;;;;;;27.02;18.75;;;15.50;99.90;;;;;;5069559;28;20040;-63
2021/07/28 03:19:06;;;;;;;20.48;18.33;;;15.50;99.90;;;;;;5071717;28;20033;-64
2021/07/28 03:21:35;;;;;;;22.85;18.25;;;15.50;99.90;;;;;;5070621;28;20093;-63
2021/07/28 03:24:01;;;;;;;22.05;18.33;;;15.50;99.90;;;;;;5071618;28;20397;-64
2021/07/28 03:26:27;;;;;;;20.45;17.45;;;15.50;99.90;;;;;;5071240;28;20041;-64
2021/07/28 03:28:53;;;;;;;22.85;18.27;;;15.40;99.90;;;;;;5068919;28;20044;-64
2021/07/28 03:31:20;;;;;;;24.15;18.40;;;15.50;99.90;;;;;;5071660;28;20056;-63
2021/07/28 03:33:45;;;;;;;24.00;19.27;;;15.40;99.90;;;;;;5071148;28;20036;-64
2021/07/28 03:36:11;;;;;;;23.98;18.45;;;15.40;99.90;;;;;;5070976;28;20047;-64
2021/07/28 03:38:37;;;;;;;24.58;19.10;;;15.40;99.90;;;;;;5070249;28;20502;-64
2021/07/28 03:41:03;;;;;;;24.58;19.63;;;15.40;99.90;;;;;;5070663;28;20055;-64
2021/07/28 03:43:36;;;;;;;23.60;18.98;;;15.40;99.90;;;;;;5070684;28;20052;-64
2021/07/28 03:46:02;;;;;;;22.25;17.65;;;15.40;99.90;;;;;;5069136;28;20043;-64
2021/07/28 03:48:30;;;;;;;25.90;19.48;;;15.40;99.90;;;;;;5070935;28;20037;-64
2021/07/28 03:50:57;;;;;;;26.30;19.33;;;15.40;99.90;;;;;;5066702;28;20543;-64
2021/07/28 03:53:22;;;;;;;26.10;18.58;;;15.40;99.90;;;;;;5070615;28;20039;-64
2021/07/28 03:55:48;;;;;;;25.85;19.15;;;15.40;99.90;;;;;;5050708;28;20710;-64
2021/07/28 03:58:14;;;;;;;25.30;18.67;;;15.30;99.90;;;;;;5059551;28;20041;-63
2021/07/28 04:00:39;;;;;;;24.00;19.23;;;15.40;99.90;;;;;;5070412;28;20733;-64
2021/07/28 04:03:05;;;;;;;26.25;20.60;;;15.40;99.90;;;;;;5066807;28;20053;-64
2021/07/28 04:05:31;;;;;;;27.05;20.05;;;15.40;99.90;;;;;;5070619;28;20115;-64
2021/07/28 04:07:57;;;;;;;26.48;21.00;;;15.40;99.90;;;;;;5051430;28;20382;-64
2021/07/28 04:10:23;;;;;;;23.90;19.60;;;15.40;99.90;;;;;;5050530;28;20037;-64
2021/07/28 04:12:49;;;;;;;24.40;18.85;;;15.50;99.90;;;;;;5068255;28;20072;-63
2021/07/28 04:15:15;;;;;;;24.42;19.33;;;15.50;99.90;;;;;;5069711;28;20060;-64
2021/07/28 04:17:41;;;;;;;21.60;18.95;;;15.50;99.90;;;;;;5064316;28;20045;-64
2021/07/28 04:20:07;;;;;;;21.60;18.50;;;15.40;99.90;;;;;;5070907;28;20795;-64
2021/07/28 04:22:33;;;;;;;24.38;19.95;;;15.50;99.90;;;;;;5057013;28;20112;-64
2021/07/28 04:25:01;;;;;;;22.75;18.88;;;15.50;99.90;;;;;;5050948;28;20086;-64
2021/07/28 04:27:29;;;;;;;25.48;19.33;;;15.50;99.90;;;;;;5065081;28;20033;-64
2021/07/28 04:29:55;;;;;;;22.48;18.90;;;15.60;99.90;;;;;;5072274;28;20041;-65
2021/07/28 04:32:23;;;;;;;26.00;18.83;;;15.60;99.90;;;;;;5074980;28;20444;-65
2021/07/28 04:34:49;;;;;;;21.77;19.00;;;15.60;99.90;;;;;;5071909;28;20075;-64
2021/07/28 04:37:15;;;;;;;24.33;18.83;;;15.70;99.90;;;;;;5075280;28;20185;-64
2021/07/28 04:39:41;;;;;;;24.33;18.63;;;15.70;99.90;;;;;;5074676;28;20422;-64
2021/07/28 04:42:07;;;;;;;22.88;19.30;;;15.80;99.90;;;;;;5074865;28;20094;-64
2021/07/28 04:44:33;;;;;;;22.80;19.05;;;15.80;99.90;;;;;;5072337;28;20373;-65
2021/07/28 04:46:59;;;;;;;23.85;18.30;;;15.90;99.90;;;;;;5073771;28;20040;-64
2021/07/28 04:49:24;;;;;;;23.45;18.48;;;16.00;99.90;;;;;;5074292;28;20033;-64
2021/07/28 04:51:50;;;;;;;24.15;18.75;;;16.00;99.90;;;;;;5072541;28;20048;-64
2021/07/28 04:54:16;;;;;;;22.02;18.08;;;16.00;99.90;;;;;;5070992;28;20456;-65
2021/07/28 04:56:43;;;;;;;23.90;19.00;;;16.10;99.90;;;;;;5054113;28;20051;-64
2021/07/28 04:59:09;;;;;;;24.75;18.98;;;16.10;99.90;;;;;;5071931;28;20115;-64
2021/07/28 05:01:34;;;;;;;21.65;18.60;;;16.20;99.90;;;;;;5073782;28;20065;-64
2021/07/28 05:04:03;;;;;;;22.17;18.02;;;16.20;99.90;;;;;;5073410;28;20136;-65
2021/07/28 05:06:29;;;;;;;20.45;17.98;;;16.30;99.90;;;;;;5054616;28;20056;-64
2021/07/28 05:08:54;;;;;;;21.77;19.27;;;16.40;99.90;;;;;;5067311;28;20040;-64
2021/07/28 05:11:21;;;;;;;21.50;17.85;;;16.50;99.90;;;;;;5073962;28;20045;-64
2021/07/28 05:13:47;;;;;;;20.70;17.35;;;16.70;99.90;;;;;;5070584;28;20033;-64
2021/07/28 05:16:13;;;;;;;20.75;18.52;;;17.00;99.90;;;;;;5073258;28;20655;-65
2021/07/28 05:18:38;;;;;;;21.10;18.63;;;17.30;99.90;;;;;;5072129;28;20040;-65
2021/07/28 05:21:04;;;;;;;19.58;16.80;;;17.40;99.90;;;;;;5071331;28;20139;-65
2021/07/28 05:23:30;;;;;;;20.15;17.77;;;17.40;99.90;;;;;;5074182;28;20037;-67
2021/07/28 05:25:55;;;;;;;19.30;17.10;;;17.40;99.90;;;;;;5069499;28;20044;-65
2021/07/28 05:28:21;;;;;;;19.98;17.42;;;17.50;99.90;;;;;;5073934;28;20047;-64
2021/07/28 05:30:46;;;;;;;21.15;17.58;;;17.50;99.90;;;;;;5064042;28;20041;-64
2021/07/28 05:33:12;;;;;;;20.40;18.17;;;17.50;99.90;;;;;;5053821;28;20475;-65
2021/07/28 05:35:38;;;;;;;22.33;19.25;;;17.50;99.90;;;;;;5061249;28;20058;-65
2021/07/28 05:38:04;;;;;;;22.23;19.77;;;17.50;99.90;;;;;;5073456;28;20067;-64
2021/07/28 05:40:30;;;;;;;22.15;19.75;;;17.60;99.90;;;;;;5066181;28;20087;-63
2021/07/28 05:42:57;;;;;;;21.00;18.73;;;17.70;99.90;;;;;;5058397;28;20037;-64
2021/07/28 05:45:24;;;;;;;20.83;18.65;;;17.80;99.90;;;;;;5070079;28;20059;-63
2021/07/28 05:47:49;;;;;;;23.58;21.08;;;18.00;99.90;;;;;;5071137;28;20040;-64
2021/07/28 05:50:16;;;;;;;23.10;20.70;;;18.10;99.90;;;;;;5073075;28;20036;-63
2021/07/28 05:52:42;;;;;;;22.77;20.33;;;18.00;99.90;;;;;;5073397;28;20041;-64
2021/07/28 05:55:09;;;;;;;22.88;20.58;;;18.00;99.90;;;;;;5071138;28;20098;-63
2021/07/28 05:57:35;;;;;;;25.10;22.60;;;18.00;99.90;;;;;;5058747;28;20440;-63
2021/07/28 06:00:03;;;;;;;25.63;22.70;;;18.00;99.90;;;;;;5070781;28;20121;-64
2021/07/28 06:02:28;;;;;;;25.35;22.83;;;18.00;99.90;;;;;;5070970;28;20056;-64
2021/07/28 06:04:54;;;;;;;24.60;22.08;;;18.10;99.90;;;;;;5061856;28;20394;-64
2021/07/28 06:07:20;;;;;;;24.50;21.92;;;18.10;99.90;;;;;;5073280;28;20063;-64
2021/07/28 06:09:46;;;;;;;24.65;22.00;;;18.20;99.90;;;;;;5073214;28;20420;-64
2021/07/28 06:12:11;;;;;;;23.85;21.27;;;18.10;99.90;;;;;;5071985;28;20040;-64
2021/07/28 06:14:37;;;;;;;25.60;22.98;;;18.20;99.90;;;;;;5073322;28;20048;-64
2021/07/28 06:17:03;;;;;;;24.35;21.80;;;18.10;99.90;;;;;;5070546;28;20048;-64
2021/07/28 06:19:28;;;;;;;24.60;21.95;;;18.10;99.90;;;;;;5071654;28;20032;-64
2021/07/28 06:21:54;;;;;;;23.73;21.23;;;18.00;99.90;;;;;;5073031;28;20056;-64
2021/07/28 06:24:19;;;;;;;24.10;21.60;;;18.00;99.90;;;;;;5071678;28;20532;-64
2021/07/28 06:26:45;;;;;;;21.50;19.35;;;18.00;99.90;;;;;;5072804;28;20040;-64
2021/07/28 06:29:11;;;;;;;23.48;21.17;;;17.90;99.90;;;;;;5072916;28;20417;-64
2021/07/28 06:31:36;;;;;;;24.23;21.88;;;18.00;99.90;;;;;;5072794;28;20076;-64
2021/07/28 06:34:02;;;;;;;22.88;20.58;;;17.90;99.90;;;;;;5062294;28;20044;-64
2021/07/28 06:36:28;;;;;;;22.73;20.60;;;18.00;99.90;;;;;;5072527;28;20074;-64
2021/07/28 06:38:54;;;;;;;22.95;20.60;;;18.20;99.90;;;;;;5070572;28;20111;-64
2021/07/28 06:41:19;;;;;;;21.63;19.33;;;18.30;99.90;;;;;;5072430;28;20059;-64
2021/07/28 06:43:45;;;;;;;21.70;19.55;;;18.30;99.90;;;;;;5070406;28;20099;-64
2021/07/28 06:46:10;;;;;;;21.92;19.50;;;18.30;99.90;;;;;;5061095;28;20071;-64
2021/07/28 06:48:36;;;;;;;21.77;19.73;;;18.40;99.90;;;;;;5068186;28;20037;-73
2021/07/28 06:51:02;;;;;;;20.90;18.88;;;18.40;99.90;;;;;;5061880;28;20036;-64
2021/07/28 06:53:28;;;;;;;19.70;17.70;;;18.40;99.90;;;;;;5069478;28;20051;-64
2021/07/28 06:55:54;;;;;;;22.77;18.55;;;18.40;99.90;;;;;;5070025;28;20032;-64
2021/07/28 06:58:20;;;;;;;19.73;17.63;;;18.40;99.90;;;;;;5069461;28;20032;-64
2021/07/28 07:00:46;;;;;;;20.80;18.70;;;18.40;99.90;;;;;;5072271;28;20056;-64
2021/07/28 07:03:12;;;;;;;20.92;18.95;;;18.50;99.90;;;;;;5069441;28;20055;-64
2021/07/28 07:05:38;;;;;;;22.15;19.95;;;18.40;99.90;;;;;;5071369;28;20055;-64
2021/07/28 07:08:03;;;;;;;21.13;18.95;;;18.40;99.90;;;;;;5069810;28;20033;-64
2021/07/28 07:10:29;;;;;;;21.60;19.55;;;18.50;99.90;;;;;;5059379;28;20037;-64
2021/07/28 07:12:55;;;;;;;21.33;19.23;;;18.40;99.90;;;;;;5070968;28;20040;-64
2021/07/28 07:15:20;;;;;;;20.65;18.63;;;18.40;99.90;;;;;;5071351;28;20036;-64
2021/07/28 07:17:46;;;;;;;20.25;18.25;;;18.50;99.90;;;;;;5071379;28;20067;-64
2021/07/28 07:20:12;;;;;;;22.00;19.55;;;18.40;99.90;;;;;;5068216;28;20110;-64
2021/07/28 07:22:38;;;;;;;22.95;18.67;;;18.50;99.90;;;;;;5068411;28;20127;-64
2021/07/28 07:25:05;;;;;;;21.13;18.92;;;18.60;99.90;;;;;;5070427;28;20124;-64
2021/07/28 07:27:31;;;;;;;20.60;18.60;;;18.60;99.90;;;;;;5069179;28;20048;-64
2021/07/28 07:29:56;;;;;;;20.20;18.15;;;18.60;99.90;;;;;;5060431;28;20041;-64
2021/07/28 07:32:23;;;;;;;20.35;18.35;;;18.60;99.90;;;;;;5051302;28;20037;-64
2021/07/28 07:34:50;;;;;;;19.05;17.35;;;18.60;99.90;;;;;;5069627;28;20049;-64
2021/07/28 07:37:16;;;;;;;18.63;16.80;;;18.70;99.90;;;;;;5057020;28;20592;-64
2021/07/28 07:39:42;;;;;;;19.15;17.23;;;18.80;99.90;;;;;;5071589;28;20055;-65
2021/07/28 07:42:08;;;;;;;17.95;16.35;;;18.90;99.90;;;;;;5066671;28;20462;-64
2021/07/28 07:44:33;;;;;;;18.52;16.83;;;19.10;99.90;;;;;;5060437;28;20037;-64
2021/07/28 07:46:59;;;;;;;18.33;16.63;;;19.20;99.90;;;;;;5074091;28;20037;-64
2021/07/28 07:49:25;;;;;;;17.98;16.25;;;19.20;99.90;;;;;;5070621;28;20040;-64
2021/07/28 07:51:50;;;;;;;18.88;17.27;;;19.30;99.90;;;;;;5068558;28;20068;-64
2021/07/28 07:54:16;;;;;;;18.35;16.63;;;19.60;99.90;;;;;;5067718;28;20068;-64
2021/07/28 07:56:41;;;;;;;17.70;16.00;;;19.90;99.90;;;;;;5063221;28;20047;-64
2021/07/28 07:59:07;;;;;;;17.58;15.88;;;20.10;99.90;;;;;;5066818;28;20059;-64
2021/07/28 08:01:33;;;;;;;18.52;16.75;;;20.50;99.90;;;;;;5091862;22;20056;-63
2021/07/28 08:03:58;;;;;;;17.00;15.35;;;21.00;99.90;;;;;;5057600;28;20090;-62
2021/07/28 08:06:24;;;;;;;17.08;15.30;;;21.50;99.90;;;;;;5066590;28;20529;-63
2021/07/28 08:08:49;;;;;;;15.50;14.00;;;22.20;99.90;;;;;;5070806;28;20041;-63
2021/07/28 08:11:16;;;;;;;16.77;15.18;;;22.70;99.90;;;;;;5064146;28;20025;-63
2021/07/28 08:13:43;;;;;;;17.65;15.90;;;22.60;99.90;;;;;;5051138;28;20056;-63
2021/07/28 08:16:20;;;;;;;15.73;14.23;;;22.50;99.90;;;;;;5061781;28;20072;-63
2021/07/28 08:18:50;;;;;;;16.80;15.23;;;22.50;99.90;;;;;;5063539;28;20049;-63
2021/07/28 08:21:17;;;;;;;15.63;14.23;;;22.50;99.90;;;;;;5068367;28;20048;-63
2021/07/28 08:23:45;;;;;;;17.98;16.30;;;22.50;99.90;;;;;;5066503;28;20482;-63
2021/07/28 08:26:15;;;;;;;17.05;15.30;;;22.40;99.90;;;;;;5067172;28;20048;-63
2021/07/28 08:28:42;;;;;;;16.55;14.82;;;22.20;99.90;;;;;;5067214;28;20036;-63
2021/07/28 08:31:08;;;;;;;15.73;14.38;;;22.00;99.90;;;;;;5069864;28;20076;-63
2021/07/28 08:33:34;;;;;;;17.02;15.23;;;21.60;99.90;;;;;;5067603;28;20043;-63
2021/07/28 08:36:03;;;;;;;16.65;15.02;;;21.50;99.90;;;;;;5069739;28;20443;-63
2021/07/28 08:38:30;;;;;;;16.35;14.85;;;21.40;99.90;;;;;;5068955;28;20033;-63
2021/07/28 08:41:01;;;;;;;16.50;14.90;;;21.20;99.90;;;;;;5060054;28;20374;-63
2021/07/28 08:43:32;;;;;;;16.67;15.07;;;21.30;99.90;;;;;;5068728;28;20041;-63
2021/07/28 08:45:59;;;;;;;15.70;13.95;;;21.20;99.90;;;;;;5058485;28;20421;-63
2021/07/28 08:48:25;;;;;;;14.65;13.15;;;21.30;99.90;;;;;;5062347;28;20549;-62
2021/07/28 08:50:55;;;;;;;13.98;12.77;;;21.30;99.90;;;;;;5069143;28;20135;-62
2021/07/28 08:53:21;;;;;;;14.88;13.43;;;21.30;99.90;;;;;;5070723;28;20044;-62
2021/07/28 08:55:47;;;;;;;14.80;13.40;;;21.30;99.90;;;;;;5059120;28;20071;-62
2021/07/28 08:58:15;;;;;;;14.80;13.43;;;21.40;99.90;;;;;;5062102;28;20040;-62
2021/07/28 09:00:44;;;;;;;14.65;13.27;;;21.60;99.90;;;;;;5054042;28;20513;-62
2021/07/28 09:03:11;;;;;;;13.82;12.52;;;21.70;99.90;;;;;;5106982;28;20051;-62
2021/07/28 09:05:38;;;;;;;15.63;13.38;;;22.00;99.90;;;;;;5118595;28;20039;-62
2021/07/28 09:08:05;;;;;;;13.65;12.02;;;22.10;99.90;;;;;;5125765;28;20039;-64
2021/07/28 09:10:31;;;;;;;14.13;12.73;;;22.30;99.90;;;;;;5129984;27;20039;-64
2021/07/28 09:12:56;;;;;;;13.30;11.90;;;22.50;99.90;;;;;;5131612;27;20064;-63
2021/07/28 09:15:22;;;;;;;12.55;11.30;;;22.70;99.90;;;;;;5134169;27;20073;-63
2021/07/28 09:17:49;;;;;;;12.93;11.55;;;22.70;99.90;;;;;;5122530;27;20068;-63
2021/07/28 09:20:24;;;;;;;11.25;10.25;;;22.60;99.90;;;;;;5133030;27;20062;-63
2021/07/28 09:22:50;;;;;;;13.10;11.75;;;22.50;99.90;;;;;;5130575;27;20035;-63
2021/07/28 09:27:46;;;;;;;11.52;10.43;;;22.70;99.90;;;;;;5133060;27;20031;-63
2021/07/28 09:30:34;;;;;;;12.38;11.18;;;22.90;99.90;;;;;;5134248;27;20046;-63
2021/07/28 09:33:12;;;;;;;10.82;9.73;;;23.00;99.90;;;;;;5129880;27;20047;-64
2021/07/28 09:35:50;;;;;;;12.00;10.80;;;23.20;99.90;;;;;;5133240;27;20059;-63
2021/07/28 09:38:48;;;;;;;11.98;10.90;;;23.20;99.90;;;;;;5122492;27;20066;-64
2021/07/28 09:41:23;;;;;;;11.18;10.07;;;23.30;99.90;;;;;;5123259;27;20117;-64
2021/07/28 09:43:51;;;;;;;10.73;9.63;;;23.30;99.90;;;;;;5120351;27;20077;-63
2021/07/28 09:46:26;;;;;;;9.52;8.63;;;23.50;99.90;;;;;;5120338;27;20042;-63
2021/07/28 09:48:52;;;;;;;8.13;7.32;;;23.70;99.90;;;;;;5122692;27;20035;-64
2021/07/28 09:51:31;;;;;;;7.53;6.82;;;23.70;99.10;;;;;;5131939;27;20065;-64
2021/07/28 09:53:59;;;;;;;7.07;6.38;;;24.10;98.70;;;;;;5130371;27;20031;-64
2021/07/28 09:56:29;;;;;;;7.25;6.55;;;24.10;98.80;;;;;;5133944;27;20039;-64
2021/07/28 09:58:58;;;;;;;7.55;6.88;;;24.20;99.00;;;;;;5131814;27;20031;-63
2021/07/28 10:01:25;;;;;;;8.07;7.30;;;24.20;97.00;;;;;;5133511;27;20059;-63
2021/07/28 10:03:51;;;;;;;7.78;6.97;;;24.10;98.00;;;;;;5133482;27;20556;-63
2021/07/28 10:06:20;;;;;;;7.35;6.65;;;24.10;98.20;;;;;;5139667;27;20364;-64
2021/07/28 10:08:46;;;;;;;8.25;7.65;;;24.10;98.50;;;;;;5131159;27;20035;-63
2021/07/28 10:11:13;;;;;;;9.40;8.15;;;24.00;97.30;;;;;;5131487;27;20043;-63
2021/07/28 10:13:42;;;;;;;9.52;7.47;;;23.70;97.10;;;;;;5134282;27;20119;-62
2021/07/28 10:16:07;;;;;;;9.60;7.22;;;23.30;98.00;;;;;;5128435;27;20031;-63
2021/07/28 10:18:34;;;;;;;7.72;6.70;;;23.30;98.70;;;;;;5133953;27;20670;-63
2021/07/28 10:21:00;;;;;;;6.63;6.07;;;23.20;98.70;;;;;;5133675;27;20353;-62
2021/07/28 10:23:27;;;;;;;7.97;7.18;;;23.40;99.00;;;;;;5130978;27;20045;-63
2021/07/28 10:25:53;;;;;;;8.35;7.63;;;23.50;98.80;;;;;;5131898;27;20041;-63
2021/07/28 10:28:19;;;;;;;9.98;7.97;;;23.70;98.30;;;;;;5133859;27;20031;-63
2021/07/28 10:31:11;;;;;;;8.25;7.45;;;23.90;97.20;;;;;;5112930;28;20389;-63
2021/07/28 10:33:56;;;;;;;8.93;8.13;;;23.90;97.60;;;;;;5132964;27;20042;-63
2021/07/28 10:36:45;;;;;;;8.30;7.60;;;23.80;97.70;;;;;;5133250;27;20567;-63
2021/07/28 10:39:12;;;;;;;8.73;7.90;;;23.60;97.30;;;;;;5131652;27;20683;-63
2021/07/28 10:41:43;;;;;;;8.80;7.97;;;23.70;97.60;;;;;;5130613;27;20118;-63
2021/07/28 10:44:22;;;;;;;7.35;6.65;;;23.60;97.50;;;;;;5128278;27;20035;-63
2021/07/28 10:46:54;;;;;;;7.97;7.13;;;23.20;96.40;;;;;;5131021;27;20062;-63
2021/07/28 10:49:28;;;;;;;9.20;7.72;;;23.10;96.80;;;;;;5129121;27;20031;-63
2021/07/28 10:51:55;;;;;;;8.25;7.50;;;23.10;98.30;;;;;;5126258;27;20046;-63
2021/07/28 10:54:46;;;;;;;8.20;6.95;;;23.00;98.50;;;;;;5132371;27;20043;-63
2021/07/28 10:57:34;;;;;;;8.10;7.40;;;22.60;98.00;;;;;;5129719;27;20079;-63
2021/07/28 11:00:11;;;;;;;7.97;7.25;;;22.30;98.80;;;;;;5128736;27;20046;-63
2021/07/28 11:02:52;;;;;;;8.35;7.35;;;22.30;99.20;;;;;;5130520;27;20069;-63
2021/07/28 11:05:18;;;;;;;8.00;7.20;;;22.40;99.90;;;;;;5132485;27;20135;-63
2021/07/28 11:07:59;;;;;;;7.20;6.50;;;22.60;99.90;;;;;;5133037;27;20068;-63
2021/07/28 11:10:44;;;;;;;7.15;6.45;;;22.80;99.20;;;;;;5131229;27;20043;-63
2021/07/28 11:13:17;;;;;;;7.63;6.97;;;22.70;98.70;;;;;;5118308;27;20106;-62
2021/07/28 11:15:57;;;;;;;8.05;7.25;;;22.60;99.10;;;;;;5128923;27;20035;-64
2021/07/28 11:18:46;;;;;;;8.60;7.80;;;22.50;99.40;;;;;;5123768;27;20035;-64
2021/07/28 11:21:29;;;;;;;8.48;7.78;;;22.20;99.90;;;;;;5132219;27;20049;-63
2021/07/28 11:24:02;;;;;;;9.65;8.65;;;22.10;99.90;;;;;;5130916;27;20075;-63
2021/07/28 11:26:36;;;;;;;8.82;8.07;;;22.10;99.90;;;;;;5132098;27;20039;-64
2021/07/28 11:29:08;;;;;;;7.97;7.22;;;22.10;99.90;;;;;;5131279;27;20468;-63
2021/07/28 11:31:39;;;;;;;8.18;7.47;;;22.00;99.90;;;;;;5125673;27;20027;-64
2021/07/28 11:34:16;;;;;;;7.83;7.13;;;21.90;99.90;;;;;;5132481;27;20035;-64
2021/07/28 11:37:04;;;;;;;7.55;6.82;;;22.00;99.90;;;;;;5130419;27;20039;-63
2021/07/28 11:39:31;;;;;;;10.90;6.72;;;22.00;99.90;;;;;;5114345;27;20047;-63
2021/07/28 11:42:10;;;;;;;8.10;6.30;;;22.20;99.90;;;;;;5132114;27;20096;-63
2021/07/28 11:44:44;;;;;;;6.68;6.10;;;22.10;99.90;;;;;;5130688;27;20035;-63
2021/07/28 11:47:10;;;;;;;7.20;6.10;;;21.90;99.90;;;;;;5131695;27;20490;-64
2021/07/28 11:49:38;;;;;;;7.80;6.53;;;21.90;99.90;;;;;;5124388;27;20058;-64
2021/07/28 11:52:03;;;;;;;6.78;5.97;;;22.00;99.90;;;;;;5131605;27;20046;-63
2021/07/28 11:54:31;;;;;;;6.25;5.13;;;22.00;99.90;;;;;;5127325;27;20038;-63
2021/07/28 11:56:56;;;;;;;7.32;5.18;;;22.00;99.90;;;;;;5130239;27;20043;-63
2021/07/28 11:59:24;;;;;;;6.28;5.32;;;22.20;99.90;;;;;;5118118;27;20428;-63
2021/07/28 12:01:54;;;;;;;5.82;5.35;;;22.30;99.90;;;;;;5111011;27;20432;-63
2021/07/28 12:04:25;;;;;;;5.70;4.82;;;22.50;99.90;;;;;;5130662;27;20061;-63
2021/07/28 12:06:51;;;;;;;5.03;4.57;;;22.80;99.90;;;;;;5131450;27;20464;-63
2021/07/28 12:09:28;;;;;;;6.20;5.38;;;22.90;99.90;;;;;;5129107;27;20039;-64
2021/07/28 12:12:00;;;;;;;6.07;5.47;;;22.90;99.20;;;;;;5128473;27;20456;-63
2021/07/28 12:14:30;;;;;;;6.90;5.13;;;23.00;98.40;;;;;;5125776;27;20383;-63
2021/07/28 12:17:05;;;;;;;7.15;5.07;;;23.10;98.90;;;;;;5130878;27;20031;-63
2021/07/28 12:19:33;;;;;;;5.20;4.70;;;23.20;99.50;;;;;;5131127;27;20030;-63
2021/07/28 12:22:02;;;;;;;5.10;4.70;;;23.20;98.40;;;;;;5125882;27;20043;-63
2021/07/28 12:24:47;;;;;;;5.00;4.53;;;23.20;98.50;;;;;;5126371;27;20449;-63
2021/07/28 12:27:25;;;;;;;6.43;4.80;;;23.20;98.40;;;;;;5129213;27;20047;-64
2021/07/28 12:30:20;;;;;;;6.82;4.18;;;23.20;98.50;;;;;;5131306;28;20080;-67
2021/07/28 12:33:09;;;;;;;6.05;4.43;;;23.30;98.40;;;;;;5111429;28;20039;-68
2021/07/28 12:35:45;;;;;;;5.03;4.25;;;23.30;98.50;;;;;;5111440;28;20043;-68
2021/07/28 12:38:23;;;;;;;6.82;4.03;;;23.30;97.20;;;;;;5111431;28;20040;-67
2021/07/28 12:40:56;;;;;;;5.68;4.57;;;23.40;97.60;;;;;;5115162;27;20088;-67
2021/07/28 12:43:24;;;;;;;5.22;4.38;;;23.30;98.20;;;;;;5131742;28;20114;-68
2021/07/28 12:46:00;;;;;;;6.10;4.30;;;23.40;98.20;;;;;;5130672;28;20047;-67